createdAt,value
2018-07-05T00:01:31.787Z,2.97
2018-07-05T00:04:18.280Z,3.17
2018-07-05T00:07:04.684Z,3.70
2018-07-05T00:09:51.059Z,3.60
2018-07-05T00:12:37.577Z,4.07
2018-07-05T00:15:24.117Z,3.00
2018-07-05T00:18:10.536Z,3.17
2018-07-05T00:20:56.900Z,3.90
2018-07-05T00:23:43.307Z,3.33
2018-07-05T00:26:29.804Z,3.80
2018-07-05T00:29:16.288Z,4.07
2018-07-05T00:32:02.696Z,3.40
2018-07-05T00:34:49.177Z,3.87
2018-07-05T00:37:35.628Z,3.63
2018-07-05T00:40:22.221Z,3.80
2018-07-05T00:43:08.782Z,3.73
2018-07-05T00:45:55.197Z,4.40
2018-07-05T00:48:41.712Z,3.70
2018-07-05T00:51:28.128Z,4.13
2018-07-05T00:54:14.549Z,3.87
2018-07-05T00:57:00.979Z,4.40
2018-07-05T00:59:47.451Z,4.10
2018-07-05T01:02:33.776Z,4.50
2018-07-05T01:05:20.249Z,3.97
2018-07-05T01:08:06.812Z,4.70
2018-07-05T01:10:53.410Z,4.00
2018-07-05T01:13:39.912Z,4.43
2018-07-05T01:16:26.308Z,4.43
2018-07-05T01:19:12.651Z,4.10
2018-07-05T01:21:59.192Z,4.50
2018-07-05T01:24:45.669Z,3.70
2018-07-05T01:27:36.430Z,3.77
2018-07-05T01:30:22.707Z,3.40
2018-07-05T01:33:09.111Z,3.80
2018-07-05T01:35:55.637Z,3.33
2018-07-05T01:38:42.117Z,5.17
2018-07-05T01:41:28.615Z,4.20
2018-07-05T01:44:15.026Z,3.90
2018-07-05T01:47:01.519Z,4.10
2018-07-05T01:49:47.937Z,3.70
2018-07-05T01:52:38.236Z,3.43
2018-07-05T01:55:24.520Z,4.50
2018-07-05T01:58:11.028Z,3.73
2018-07-05T02:00:57.520Z,4.23
2018-07-05T02:03:44.052Z,4.17
2018-07-05T02:06:30.443Z,4.10
2018-07-05T02:09:16.799Z,3.50
2018-07-05T02:12:03.280Z,4.30
2018-07-05T02:14:49.837Z,4.07
2018-07-05T02:17:36.281Z,4.77
2018-07-05T02:20:22.907Z,4.20
2018-07-05T02:23:09.355Z,4.23
2018-07-05T02:25:55.772Z,4.53
2018-07-05T02:28:42.184Z,4.60
2018-07-05T02:31:28.726Z,4.70
2018-07-05T02:34:15.232Z,5.40
2018-07-05T02:37:01.704Z,4.93
2018-07-05T02:39:49.264Z,5.67
2018-07-05T02:42:35.812Z,5.87
2018-07-05T02:45:22.200Z,5.00
2018-07-05T02:48:08.644Z,5.80
2018-07-05T02:50:55.080Z,5.80
2018-07-05T02:53:41.644Z,5.50
2018-07-05T02:56:28.234Z,5.83
2018-07-05T02:59:14.668Z,5.33
2018-07-05T03:02:01.313Z,6.50
2018-07-05T03:04:47.649Z,6.00
2018-07-05T03:07:34.263Z,6.80
2018-07-05T03:10:20.780Z,4.63
2018-07-05T03:13:07.277Z,5.67
2018-07-05T03:15:54.049Z,6.30
2018-07-05T03:18:40.475Z,6.43
2018-07-05T03:21:26.988Z,6.20
2018-07-05T03:24:13.520Z,8.57
2018-07-05T03:27:00.000Z,6.15
2018-07-05T03:29:46.472Z,6.83
2018-07-05T03:32:33.004Z,6.53
2018-07-05T03:35:19.396Z,6.80
2018-07-05T03:38:06.265Z,8.03
2018-07-05T03:40:52.656Z,8.03
2018-07-05T03:43:38.984Z,7.00
2018-07-05T03:46:25.368Z,7.87
2018-07-05T03:49:11.724Z,8.73
2018-07-05T03:51:58.154Z,7.60
2018-07-05T03:54:44.472Z,7.80
2018-07-05T03:57:30.932Z,6.90
2018-07-05T04:00:17.744Z,7.73
2018-07-05T04:03:04.356Z,7.12
2018-07-05T04:05:50.881Z,7.93
2018-07-05T04:08:37.469Z,7.83
2018-07-05T04:11:23.956Z,9.00
2018-07-05T04:14:10.520Z,7.50
2018-07-05T04:16:56.908Z,7.50
2018-07-05T04:19:49.165Z,8.57
2018-07-05T04:22:36.028Z,8.58
2018-07-05T04:25:22.628Z,8.10
2018-07-05T04:28:09.084Z,8.80
2018-07-05T04:30:55.604Z,8.17
2018-07-05T04:33:41.969Z,7.70
2018-07-05T04:36:28.220Z,8.63
2018-07-05T04:39:14.869Z,7.97
2018-07-05T04:42:01.489Z,8.27
2018-07-05T04:44:47.881Z,8.43
2018-07-05T04:47:34.508Z,8.73
2018-07-05T04:50:20.876Z,9.25
2018-07-05T04:53:07.516Z,9.20
2018-07-05T04:55:53.987Z,9.30
2018-07-05T04:58:40.600Z,9.30
2018-07-05T05:01:26.843Z,9.43
2018-07-05T05:04:13.259Z,8.03
2018-07-05T05:06:59.623Z,8.95
2018-07-05T05:09:46.100Z,10.00
2018-07-05T05:12:32.228Z,9.68
2018-07-05T05:15:18.464Z,9.37
2018-07-05T05:18:04.952Z,9.67
2018-07-05T05:20:51.501Z,10.07
2018-07-05T05:23:37.936Z,9.53
2018-07-05T05:26:24.296Z,10.10
2018-07-05T05:29:10.704Z,9.03
2018-07-05T05:31:57.298Z,9.67
2018-07-05T05:34:43.588Z,9.20
2018-07-05T05:37:30.062Z,9.50
2018-07-05T05:40:16.189Z,8.33
2018-07-05T05:43:02.700Z,9.23
2018-07-05T05:45:49.500Z,10.10
2018-07-05T05:48:36.004Z,7.70
2018-07-05T05:51:22.696Z,10.37
2018-07-05T05:54:09.080Z,8.03
2018-07-05T05:56:55.276Z,8.30
2018-07-05T05:59:41.833Z,9.23
2018-07-05T06:02:28.284Z,8.83
2018-07-05T06:05:14.564Z,9.53
2018-07-05T06:08:00.920Z,9.50
2018-07-05T06:10:47.176Z,8.70
2018-07-05T06:13:33.568Z,8.40
2018-07-05T06:16:20.017Z,6.77
2018-07-05T06:19:06.196Z,7.25
2018-07-05T06:21:52.479Z,7.37
2018-07-05T06:24:38.971Z,8.40
2018-07-05T06:27:25.560Z,8.28
2018-07-05T06:30:12.132Z,6.40
2018-07-05T06:32:58.688Z,8.20
2018-07-05T06:35:45.131Z,6.83
2018-07-05T06:38:31.668Z,7.93
2018-07-05T06:41:18.004Z,7.60
2018-07-05T06:44:04.536Z,7.37
2018-07-05T06:46:51.638Z,7.37
2018-07-05T06:49:37.984Z,6.75
2018-07-05T06:52:24.208Z,6.92
2018-07-05T06:55:10.733Z,6.33
2018-07-05T06:57:57.268Z,6.45
2018-07-05T07:00:43.712Z,6.55
2018-07-05T07:03:29.952Z,7.30
2018-07-05T07:06:16.184Z,6.07
2018-07-05T07:09:02.812Z,5.58
2018-07-05T07:11:49.264Z,5.27
2018-07-05T07:14:35.680Z,5.20
2018-07-05T07:17:22.096Z,5.43
2018-07-05T07:20:08.472Z,6.40
2018-07-05T07:22:54.952Z,4.80
2018-07-05T07:25:41.288Z,5.40
2018-07-05T07:28:27.612Z,5.20
2018-07-05T07:31:14.139Z,4.60
2018-07-05T07:34:00.555Z,5.05
2018-07-05T07:36:47.121Z,5.13
2018-07-05T07:39:33.440Z,5.30
2018-07-05T07:42:07.399Z,3.98
2018-07-05T07:44:35.144Z,3.77
2018-07-05T07:47:02.928Z,3.98
2018-07-05T07:49:30.672Z,4.10
2018-07-05T07:51:58.577Z,3.47
2018-07-05T07:54:26.367Z,3.90
2018-07-05T07:56:54.455Z,3.60
2018-07-05T07:59:22.359Z,3.90
2018-07-05T08:01:50.122Z,4.35
2018-07-05T08:04:17.887Z,3.73
2018-07-05T08:06:45.730Z,4.60
2018-07-05T08:09:13.547Z,10.93
2018-07-05T08:11:41.361Z,3.57
2018-07-05T08:14:09.107Z,4.00
2018-07-05T08:16:36.863Z,3.22
2018-07-05T08:19:04.633Z,2.93
2018-07-05T08:21:32.405Z,2.52
2018-07-05T08:24:00.175Z,3.65
2018-07-05T08:26:28.320Z,2.65
2018-07-05T08:28:56.083Z,3.10
2018-07-05T08:31:23.894Z,2.20
2018-07-05T08:33:51.632Z,3.22
2018-07-05T08:36:19.399Z,3.73
2018-07-05T08:38:47.172Z,3.02
2018-07-05T08:41:14.930Z,3.50
2018-07-05T08:43:43.564Z,4.00
2018-07-05T08:46:11.384Z,2.40
2018-07-05T08:48:39.148Z,3.37
2018-07-05T08:51:06.972Z,3.02
2018-07-05T08:53:34.685Z,3.90
2018-07-05T08:56:02.424Z,2.90
2018-07-05T08:58:30.196Z,3.70
2018-07-05T09:00:58.322Z,2.87
2018-07-05T09:03:26.096Z,3.17
2018-07-05T09:05:53.846Z,3.10
2018-07-05T09:08:21.668Z,2.40
2018-07-05T09:10:49.408Z,2.83
2018-07-05T09:13:17.177Z,2.83
2018-07-05T09:15:45.020Z,2.70
2018-07-05T09:18:13.432Z,3.77
2018-07-05T09:20:41.157Z,4.03
2018-07-05T09:23:08.988Z,2.90
2018-07-05T09:25:36.748Z,3.50
2018-07-05T09:28:04.520Z,3.43
2018-07-05T09:30:32.276Z,3.30
2018-07-05T09:33:00.056Z,3.52
2018-07-05T09:35:28.424Z,2.98
2018-07-05T09:37:56.240Z,2.50
2018-07-05T09:40:24.088Z,2.97
2018-07-05T09:42:51.863Z,2.73
2018-07-05T09:45:19.608Z,3.17
2018-07-05T09:47:47.359Z,3.00
2018-07-05T09:50:15.148Z,3.30
2018-07-05T09:52:42.948Z,2.43
2018-07-05T09:55:10.744Z,3.15
2018-07-05T09:57:38.491Z,2.40
2018-07-05T10:00:06.272Z,2.87
2018-07-05T10:02:34.015Z,3.00
2018-07-05T10:05:01.793Z,3.95
2018-07-05T10:07:29.535Z,3.03
2018-07-05T10:09:57.325Z,2.93
2018-07-05T10:12:25.064Z,3.93
2018-07-05T10:14:52.836Z,3.47
2018-07-05T10:17:20.605Z,2.92
2018-07-05T10:19:48.664Z,2.93
2018-07-05T10:22:16.906Z,3.27
2018-07-05T10:24:44.878Z,2.87
2018-07-05T10:27:13.160Z,2.70
2018-07-05T10:29:53.931Z,2.93
2018-07-05T10:32:40.352Z,3.00
2018-07-05T10:35:14.301Z,3.37
2018-07-05T10:37:42.044Z,2.43
2018-07-05T10:40:22.232Z,2.85
2018-07-05T10:43:08.819Z,3.20
2018-07-05T10:45:55.267Z,3.70
2018-07-05T10:48:41.796Z,3.67
2018-07-05T10:51:28.164Z,3.72
2018-07-05T10:54:14.360Z,3.43
2018-07-05T10:57:00.821Z,3.83
2018-07-05T10:59:47.040Z,3.80
2018-07-05T11:02:33.656Z,4.77
2018-07-05T11:05:20.172Z,3.10
2018-07-05T11:08:07.560Z,4.00
2018-07-05T11:10:53.987Z,3.80
2018-07-05T11:13:40.509Z,4.43
2018-07-05T11:16:27.071Z,4.30
2018-07-05T11:19:13.628Z,4.62
2018-07-05T11:22:00.259Z,4.50
2018-07-05T11:24:46.663Z,4.05
2018-07-05T11:27:33.060Z,3.73
2018-07-05T11:30:19.567Z,3.20
2018-07-05T11:33:06.062Z,3.50
2018-07-05T11:35:52.445Z,4.13
2018-07-05T11:38:38.868Z,4.80
2018-07-05T11:41:25.140Z,4.72
2018-07-05T11:44:11.469Z,4.55
2018-07-05T11:46:57.753Z,3.77
2018-07-05T11:49:44.138Z,4.10
2018-07-05T11:52:30.316Z,3.87
2018-07-05T11:55:16.716Z,4.60
2018-07-05T11:58:03.116Z,4.65
2018-07-05T12:00:49.390Z,2.80
2018-07-05T12:03:35.747Z,3.00
2018-07-05T12:06:22.013Z,3.67
2018-07-05T12:09:09.629Z,3.40
2018-07-05T12:11:56.016Z,3.90
2018-07-05T12:14:42.532Z,3.13
2018-07-05T12:17:28.897Z,3.83
2018-07-05T12:20:15.416Z,3.77
2018-07-05T12:23:01.913Z,3.13
2018-07-05T12:25:48.333Z,3.20
2018-07-05T12:28:34.808Z,3.80
2018-07-05T12:31:21.284Z,2.65
2018-07-05T12:34:07.739Z,3.40
2018-07-05T12:36:54.048Z,3.00
2018-07-05T12:39:40.513Z,2.50
2018-07-05T12:42:26.925Z,3.07
2018-07-05T12:45:13.346Z,3.03
2018-07-05T12:47:59.681Z,3.37
2018-07-05T12:50:46.297Z,3.00
2018-07-05T12:53:32.658Z,3.80
2018-07-05T12:56:19.108Z,3.70
2018-07-05T12:59:05.664Z,2.95
2018-07-05T13:01:52.027Z,3.80
2018-07-05T13:04:38.496Z,3.50
2018-07-05T13:07:24.936Z,4.17
2018-07-05T13:10:11.444Z,3.00
2018-07-05T13:12:57.984Z,3.10
2018-07-05T13:15:44.460Z,2.83
2018-07-05T13:18:30.716Z,2.83
2018-07-05T13:21:17.008Z,2.30
2018-07-05T13:24:03.340Z,2.67
2018-07-05T13:26:50.101Z,2.80
2018-07-05T13:29:36.612Z,2.70
2018-07-05T13:32:22.926Z,2.40
2018-07-05T13:35:09.320Z,2.27
2018-07-05T13:37:55.820Z,2.73
2018-07-05T13:40:42.213Z,2.62
2018-07-05T13:43:28.585Z,2.30
2018-07-05T13:46:14.796Z,2.53
2018-07-05T13:49:01.292Z,2.00
2018-07-05T13:51:47.598Z,2.02
2018-07-05T13:54:33.917Z,2.80
2018-07-05T13:57:20.148Z,2.17
2018-07-05T14:00:06.565Z,1.90
2018-07-05T14:02:52.933Z,2.45
2018-07-05T14:05:39.329Z,2.40
2018-07-05T14:08:27.629Z,2.30
2018-07-05T14:11:13.927Z,3.10
2018-07-05T14:14:00.572Z,3.00
2018-07-05T14:16:46.941Z,2.33
2018-07-05T14:19:33.308Z,2.60
2018-07-05T14:22:19.555Z,2.27
2018-07-05T14:25:06.092Z,3.30
2018-07-05T14:27:52.491Z,2.30
2018-07-05T14:30:39.015Z,2.20
2018-07-05T14:33:25.440Z,2.60
2018-07-05T14:36:11.753Z,2.97
2018-07-05T14:38:58.029Z,2.67
2018-07-05T14:41:44.428Z,2.30
2018-07-05T14:44:30.709Z,2.50
2018-07-05T14:47:17.100Z,2.33
2018-07-05T14:50:03.616Z,2.70
2018-07-05T14:52:49.973Z,2.40
2018-07-05T14:55:36.194Z,2.33
2018-07-05T14:58:22.487Z,1.80
2018-07-05T15:01:08.816Z,2.50
2018-07-05T15:03:55.191Z,1.70
2018-07-05T15:06:41.621Z,2.47
2018-07-05T15:09:28.044Z,1.65
2018-07-05T15:12:14.617Z,1.87
2018-07-05T15:15:01.034Z,1.97
2018-07-05T15:17:47.621Z,3.03
2018-07-05T15:20:34.152Z,1.40
2018-07-05T15:23:20.762Z,1.73
2018-07-05T15:26:07.284Z,1.60
2018-07-05T15:28:53.813Z,1.50
2018-07-05T15:31:40.532Z,1.47
2018-07-05T15:34:26.984Z,1.70
2018-07-05T15:37:13.461Z,1.53
2018-07-05T15:39:59.848Z,1.70
2018-07-05T15:42:46.524Z,1.20
2018-07-05T15:45:32.897Z,1.40
2018-07-05T15:48:19.399Z,1.73
2018-07-05T15:51:06.045Z,1.20
2018-07-05T15:53:52.293Z,1.65
2018-07-05T15:56:38.668Z,1.90
2018-07-05T15:59:24.921Z,1.93
2018-07-05T16:02:11.082Z,2.30
2018-07-05T16:04:57.543Z,2.40
2018-07-05T16:07:43.944Z,2.08
2018-07-05T16:10:30.440Z,2.00
2018-07-05T16:13:17.076Z,1.93
2018-07-05T16:16:03.300Z,1.50
2018-07-05T16:18:49.864Z,2.20
2018-07-05T16:21:36.260Z,1.95
2018-07-05T16:24:22.796Z,1.87
2018-07-05T16:27:09.361Z,2.15
2018-07-05T16:29:55.779Z,1.57
2018-07-05T16:32:42.158Z,1.90
2018-07-05T16:35:28.419Z,2.17
2018-07-05T16:38:14.824Z,2.03
2018-07-05T16:41:01.284Z,2.43
2018-07-05T16:43:47.879Z,2.20
2018-07-05T16:46:34.256Z,2.63
2018-07-05T16:49:20.789Z,2.70
2018-07-05T16:52:07.008Z,2.43
2018-07-05T16:54:53.635Z,2.65
2018-07-05T16:57:40.125Z,2.50
2018-07-05T17:00:26.653Z,1.93
2018-07-05T17:03:13.000Z,2.70
2018-07-05T17:05:59.249Z,3.00
2018-07-05T17:08:45.599Z,2.83
2018-07-05T17:11:31.845Z,3.37
2018-07-05T17:14:18.353Z,2.77
2018-07-05T17:17:04.685Z,3.20
2018-07-05T17:19:51.669Z,2.80
2018-07-05T17:22:38.686Z,3.10
2018-07-05T17:25:25.145Z,2.75
2018-07-05T17:28:11.364Z,2.93
2018-07-05T17:30:57.740Z,2.80
2018-07-05T17:33:44.172Z,2.90
2018-07-05T17:36:30.596Z,2.90
2018-07-05T17:39:16.988Z,2.87
2018-07-05T17:42:03.348Z,2.98
2018-07-05T17:44:49.716Z,2.85
2018-07-05T17:47:36.268Z,2.43
2018-07-05T17:50:22.838Z,2.87
2018-07-05T17:53:09.428Z,2.93
2018-07-05T17:55:56.476Z,2.37
2018-07-05T17:58:43.008Z,3.25
2018-07-05T18:01:29.493Z,2.87
2018-07-05T18:04:15.907Z,3.00
2018-07-05T18:07:02.416Z,3.00
2018-07-05T18:09:48.896Z,3.83
2018-07-05T18:12:35.281Z,2.93
2018-07-05T18:15:21.568Z,3.07
2018-07-05T18:18:07.965Z,2.80
2018-07-05T18:20:54.593Z,3.13
2018-07-05T18:23:41.036Z,2.93
2018-07-05T18:26:27.508Z,2.80
2018-07-05T18:29:13.796Z,2.97
2018-07-05T18:32:00.320Z,3.60
2018-07-05T18:34:46.696Z,2.93
2018-07-05T18:37:33.321Z,2.87
2018-07-05T18:40:19.740Z,3.00
2018-07-05T18:43:06.230Z,3.27
2018-07-05T18:45:52.491Z,3.13
2018-07-05T18:48:39.021Z,2.50
2018-07-05T18:51:25.227Z,2.80
2018-07-05T18:54:11.507Z,3.47
2018-07-05T18:56:58.033Z,2.60
2018-07-05T18:59:44.600Z,2.93
2018-07-05T19:02:31.167Z,3.30
2018-07-05T19:05:17.736Z,3.30
2018-07-05T19:08:04.336Z,3.13
2018-07-05T19:10:51.469Z,3.17
2018-07-05T19:13:37.932Z,3.87
2018-07-05T19:16:24.687Z,2.50
2018-07-05T19:19:10.979Z,2.60
2018-07-05T19:21:57.368Z,3.23
2018-07-05T19:24:43.835Z,2.30
2018-07-05T19:27:30.305Z,2.23
2018-07-05T19:30:16.743Z,2.27
2018-07-05T19:33:03.080Z,2.05
2018-07-05T19:35:49.524Z,1.90
2018-07-05T19:38:35.926Z,1.77
2018-07-05T19:41:22.124Z,2.00
2018-07-05T19:44:08.428Z,1.62
2018-07-05T19:46:54.826Z,2.22
2018-07-05T19:49:41.397Z,2.10
2018-07-05T19:52:27.661Z,2.20
2018-07-05T19:55:14.065Z,2.50
2018-07-05T19:58:00.416Z,2.00
2018-07-05T20:00:46.898Z,1.90
2018-07-05T20:03:33.401Z,1.80
2018-07-05T20:06:19.828Z,2.07
2018-07-05T20:09:07.056Z,1.57
2018-07-05T20:11:58.969Z,1.50
2018-07-05T20:14:45.352Z,2.07
2018-07-05T20:17:32.002Z,1.93
2018-07-05T20:20:18.400Z,1.57
2018-07-05T20:23:04.865Z,1.67
2018-07-05T20:25:51.428Z,1.70
2018-07-05T20:28:37.991Z,1.70
2018-07-05T20:31:24.155Z,1.60
2018-07-05T20:34:10.630Z,1.70
2018-07-05T20:36:57.116Z,1.23
2018-07-05T20:39:43.372Z,1.40
2018-07-05T20:42:29.872Z,1.60
2018-07-05T20:45:16.238Z,1.50
2018-07-05T20:48:02.789Z,1.23
2018-07-05T20:50:49.158Z,1.30
2018-07-05T20:53:35.660Z,1.10
2018-07-05T20:56:21.989Z,1.40
2018-07-05T20:59:08.450Z,1.40
2018-07-05T21:01:54.768Z,1.20
2018-07-05T21:04:41.196Z,1.40
2018-07-05T21:07:27.785Z,1.30
2018-07-05T21:10:14.233Z,1.53
2018-07-05T21:13:00.740Z,1.40
2018-07-05T21:15:47.449Z,1.40
2018-07-05T21:18:33.805Z,1.45
2018-07-05T21:21:20.117Z,1.30
2018-07-05T21:24:06.491Z,1.50
2018-07-05T21:26:52.808Z,1.70
2018-07-05T21:29:38.976Z,1.12
2018-07-05T21:32:25.275Z,1.60
2018-07-05T21:35:11.725Z,1.53
2018-07-05T21:37:58.260Z,1.73
2018-07-05T21:40:44.713Z,1.72
2018-07-05T21:43:30.862Z,1.87
2018-07-05T21:46:16.976Z,2.10
2018-07-05T21:49:03.224Z,1.95
2018-07-05T21:51:49.912Z,1.83
2018-07-05T21:54:36.266Z,1.80
2018-07-05T21:57:23.824Z,2.15
2018-07-05T22:00:10.079Z,2.02
2018-07-05T22:02:56.421Z,2.03
2018-07-05T22:05:42.766Z,2.03
2018-07-05T22:08:29.172Z,1.93
2018-07-05T22:11:15.506Z,1.90
2018-07-05T22:14:01.876Z,2.30
2018-07-05T22:16:54.816Z,2.43
2018-07-05T22:19:46.636Z,2.20
2018-07-05T22:22:38.620Z,1.87
2018-07-05T22:26:32.181Z,2.77
2018-07-05T22:29:24.057Z,2.53
2018-07-05T22:32:10.639Z,2.60
2018-07-05T22:34:57.155Z,3.17
2018-07-05T22:37:43.428Z,2.33
2018-07-05T22:40:29.720Z,2.83
2018-07-05T22:43:16.232Z,2.87
2018-07-05T22:46:02.608Z,3.27
2018-07-05T22:48:49.149Z,3.33
2018-07-05T22:51:35.599Z,3.20
2018-07-05T22:54:22.242Z,2.90
2018-07-05T22:57:08.604Z,3.20
2018-07-05T22:59:55.191Z,3.23
2018-07-05T23:02:41.684Z,3.10
2018-07-05T23:05:28.311Z,3.13
2018-07-05T23:08:14.735Z,3.50
2018-07-05T23:11:01.353Z,3.23
2018-07-05T23:13:47.752Z,3.13
2018-07-05T23:16:34.243Z,3.10
2018-07-05T23:19:20.804Z,2.50
2018-07-05T23:22:07.437Z,2.87
2018-07-05T23:24:53.671Z,2.97
2018-07-05T23:27:40.112Z,3.10
2018-07-05T23:30:26.629Z,3.33
2018-07-05T23:33:13.348Z,3.67
2018-07-05T23:35:59.856Z,2.93
2018-07-05T23:38:46.523Z,3.40
2018-07-05T23:41:32.940Z,3.40
2018-07-05T23:44:19.332Z,4.10
2018-07-05T23:47:05.778Z,4.00
2018-07-05T23:49:52.279Z,3.87
2018-07-05T23:52:38.709Z,4.00
2018-07-05T23:55:24.960Z,3.90
2018-07-05T23:58:11.344Z,4.10
